North Waterford, ME (04267)

8:11 AM EDT on September 16, 2014 (GMT -0400)
Fernwood Cove - The Extraordinary World | Change Station
CLOSE
Current Station
Personal Weather Station
Location: Harrison, ME
Elevation: 459 ft
Nearby Weather Stations

Elev 459 ft 44.17 °N, 70.64 °W | Updated 6 seconds ago

Light Rain
Light Rain
50.2 °F
Feels Like 50.2 °F
N
0.0
Wind Variable Wind from North
Gusts 0.0 mph

Today
High -- | Low -- °F
--% Chance of Precip.
Yesterday
High -- | Low -- °F
Precip. -- in
6:23 AM 6:51 PM
Last Quarter, 46% visible
Pressure 30.06 in
Visibility 10.0 miles
Clouds Mostly Cloudy 8000 ft
Overcast 9000 ft
Dew Point 49 °F
Humidity 97%
Rainfall 0.04 in
Snow Depth Not available.
UV 0.0 out of 12
Pollen .20 out of 12
Ozone Good
Flu Activity Not available.
METAR KIZG 161154Z AUTO 00000KT 10SM -RA BKN080 OVC090 10/09 A3005 RMK AO2 SLP178 P0003 60009 70009 T01000094 10100 20083 50000

More Conditions Fewer Conditions

Pressure 30.06 in
Visibility 10.0 miles
Clouds Mostly Cloudy 8000 ft
Overcast 9000 ft
Dew Point 49 °F
Humidity 97%
Rainfall 0.04 in
Snow Depth Not available.
UV 0.0 out of 12
Pollen .20 out of 12
Ozone Good
Flu Activity Not available.
METAR KIZG 161154Z AUTO 00000KT 10SM -RA BKN080 OVC090 10/09 A3005 RMK AO2 SLP178 P0003 60009 70009 T01000094 10100 20083 50000

More Conditions Fewer Conditions

10-Day Weather Forecast

Almanac

Astronomy

Sep. 16, 2014 Rise Set
Actual Time 6:23 AM EDT 6:51 PM EDT
Civil Twilight 5:53 AM EDT 7:20 PM EDT
Nautical Twilight 5:19 AM EDT 7:54 PM EDT
Astronomical Twilight 4:44 AM EDT 8:30 PM EDT
Moon No Moon Rise 2:22 PM EDT
Length of Visible Light 13h 26m
Length of Day
12h 28m
Tomorrow will be 3m 1s shorter.
Last Quarter, 46% of the Moon is Illuminated
Today
Last Quarter
Sep 24
New
Oct 1
First Quarter
Oct 8
Full
Oct 15
Last Quarter

Today's Extremes

State Highs State Lows

Community

WunderPhotos

Upload Photos

1,753,743 photos uploaded!

Nearby

Air Quality

  Air Quality AQ Index Pollutant
Yesterday Good
OZONE
Current Good
OZONE
Tuesday Good
OZONE
Tuesday Good
PM2.5
Wednesday Good
OZONE
Wednesday Good
PM2.5
Thursday Good
OZONE
Thursday Good
PM2.5
Friday Good
OZONE
Friday Good
PM2.5
Saturday Good
OZONE
Saturday Good
PM2.5

Snow Depth

Station Depth Elevation
No new snow has been reported.

Earthquake Activity

City Distance Mag. Time & Date
No recent earthquake activity has been reported nearby.
Minimum magnitude displayed is 2.5.

Coastal Water Temperatures

Place Temperature
No Stations Reporting

Nearby Weather Stations